sensor_id;sensor_type;location;lat;lon;timestamp;pressure;altitude;pressure_sealevel;temperature;humidity
22047;BME280;11187;49.412;20.956;2023-04-03T00:01:19;94960.38;;;1.02;100.00
22047;BME280;11187;49.412;20.956;2023-04-03T00:03:53;94959.53;;;1.01;100.00
22047;BME280;11187;49.412;20.956;2023-04-03T00:06:40;94964.50;;;0.97;100.00
22047;BME280;11187;49.412;20.956;2023-04-03T00:09:14;94958.56;;;0.95;100.00
22047;BME280;11187;49.412;20.956;2023-04-03T00:12:00;94955.19;;;0.93;100.00
22047;BME280;11187;49.412;20.956;2023-04-03T00:14:34;94960.28;;;0.97;100.00
22047;BME280;11187;49.412;20.956;2023-04-03T00:17:20;94954.41;;;0.97;100.00
22047;BME280;11187;49.412;20.956;2023-04-03T00:19:54;94946.06;;;1.01;100.00
22047;BME280;11187;49.412;20.956;2023-04-03T00:22:47;94943.59;;;1.02;100.00
22047;BME280;11187;49.412;20.956;2023-04-03T00:25:21;94949.38;;;0.97;100.00
22047;BME280;11187;49.412;20.956;2023-04-03T00:28:16;94947.53;;;0.88;100.00
22047;BME280;11187;49.412;20.956;2023-04-03T00:31:09;94948.38;;;0.87;100.00
22047;BME280;11187;49.412;20.956;2023-04-03T00:33:43;94949.22;;;0.88;100.00
22047;BME280;11187;49.412;20.956;2023-04-03T00:36:36;94951.81;;;0.92;100.00
22047;BME280;11187;49.412;20.956;2023-04-03T00:39:30;94962.81;;;0.97;100.00
22047;BME280;11187;49.412;20.956;2023-04-03T00:42:24;94960.25;;;0.94;100.00
22047;BME280;11187;49.412;20.956;2023-04-03T00:47:44;94964.38;;;0.91;100.00
22047;BME280;11187;49.412;20.956;2023-04-03T00:50:19;94960.22;;;0.91;100.00
22047;BME280;11187;49.412;20.956;2023-04-03T00:53:07;94951.78;;;0.91;100.00
22047;BME280;11187;49.412;20.956;2023-04-03T00:55:44;94952.72;;;0.97;100.00
22047;BME280;11187;49.412;20.956;2023-04-03T00:58:35;94958.53;;;0.92;100.00
22047;BME280;11187;49.412;20.956;2023-04-03T01:01:12;94955.22;;;0.94;100.00
22047;BME280;11187;49.412;20.956;2023-04-03T01:04:01;94961.09;;;0.93;100.00
22047;BME280;11187;49.412;20.956;2023-04-03T01:06:37;94962.00;;;0.98;100.00
22047;BME280;11187;49.412;20.956;2023-04-03T01:09:23;94960.31;;;0.99;100.00
22047;BME280;11187;49.412;20.956;2023-04-03T01:15:07;94963.72;;;1.01;100.00
22047;BME280;11187;49.412;20.956;2023-04-03T01:17:44;94963.75;;;1.02;100.00
22047;BME280;11187;49.412;20.956;2023-04-03T01:24:39;94962.13;;;1.04;100.00
22047;BME280;11187;49.412;20.956;2023-04-03T01:26:53;94960.38;;;1.02;100.00
22047;BME280;11187;49.412;20.956;2023-04-03T01:29:46;94967.13;;;1.03;100.00
22047;BME280;11187;49.412;20.956;2023-04-03T01:32:40;94963.75;;;1.02;100.00
22047;BME280;11187;49.412;20.956;2023-04-03T01:35:34;94964.66;;;1.08;100.00
22047;BME280;11187;49.412;20.956;2023-04-03T01:38:29;94972.25;;;1.09;100.00
22047;BME280;11187;49.412;20.956;2023-04-03T01:41:22;94966.28;;;1.04;100.00
22047;BME280;11187;49.412;20.956;2023-04-03T01:43:56;94973.88;;;1.06;100.00
22047;BME280;11187;49.412;20.956;2023-04-03T01:46:50;94973.00;;;1.03;100.00
22047;BME280;11187;49.412;20.956;2023-04-03T01:49:24;94972.16;;;1.03;100.00
22047;BME280;11187;49.412;20.956;2023-04-03T01:52:17;94975.56;;;1.05;100.00
22047;BME280;11187;49.412;20.956;2023-04-03T01:55:11;94971.31;;;1.02;100.00
22047;BME280;11187;49.412;20.956;2023-04-03T01:57:48;94974.59;;;0.98;100.00
22047;BME280;11187;49.412;20.956;2023-04-03T02:00:34;94972.97;;;1.00;100.00
22047;BME280;11187;49.412;20.956;2023-04-03T02:03:11;94982.19;;;1.00;100.00
22047;BME280;11187;49.412;20.956;2023-04-03T02:06:06;94978.00;;;1.02;100.00
22047;BME280;11187;49.412;20.956;2023-04-03T02:08:39;94977.19;;;1.03;100.00
22047;BME280;11187;49.412;20.956;2023-04-03T02:11:32;94986.28;;;0.93;100.00
22047;BME280;11187;49.412;20.956;2023-04-03T02:14:26;94978.66;;;0.89;100.00
22047;BME280;11187;49.412;20.956;2023-04-03T02:17:20;94981.06;;;0.84;100.00
22047;BME280;11187;49.412;20.956;2023-04-03T02:20:14;94991.16;;;0.82;100.00
22047;BME280;11187;49.412;20.956;2023-04-03T02:22:48;94989.44;;;0.80;100.00
22047;BME280;11187;49.412;20.956;2023-04-03T02:25:35;94998.63;;;0.78;100.00
22047;BME280;11187;49.412;20.956;2023-04-03T02:28:09;94998.59;;;0.76;100.00
22047;BME280;11187;49.412;20.956;2023-04-03T02:30:55;94999.47;;;0.78;100.00
22047;BME280;11187;49.412;20.956;2023-04-03T02:33:29;94998.69;;;0.81;100.00
22047;BME280;11187;49.412;20.956;2023-04-03T02:36:16;94998.56;;;0.75;100.00
22047;BME280;11187;49.412;20.956;2023-04-03T02:38:50;95000.28;;;0.76;100.00
22047;BME280;11187;49.412;20.956;2023-04-03T02:41:36;95000.25;;;0.74;100.00
22047;BME280;11187;49.412;20.956;2023-04-03T02:44:10;95005.25;;;0.71;100.00
22047;BME280;11187;49.412;20.956;2023-04-03T02:47:05;95002.75;;;0.73;100.00
22047;BME280;11187;49.412;20.956;2023-04-03T02:49:59;95008.59;;;0.72;100.00
22047;BME280;11187;49.412;20.956;2023-04-03T02:52:53;95011.00;;;0.66;100.00
22047;BME280;11187;49.412;20.956;2023-04-03T02:55:27;95017.78;;;0.68;100.00
22047;BME280;11187;49.412;20.956;2023-04-03T02:58:20;95013.50;;;0.64;100.00
22047;BME280;11187;49.412;20.956;2023-04-03T03:01:15;95011.78;;;0.61;100.00
22047;BME280;11187;49.412;20.956;2023-04-03T03:03:49;95021.03;;;0.62;100.00
22047;BME280;11187;49.412;20.956;2023-04-03T03:06:35;95015.06;;;0.59;100.00
22047;BME280;11187;49.412;20.956;2023-04-03T03:09:10;95026.00;;;0.58;100.00
22047;BME280;11187;49.412;20.956;2023-04-03T03:11:57;95021.69;;;0.52;100.00
22047;BME280;11187;49.412;20.956;2023-04-03T03:14:30;95011.59;;;0.51;100.00
22047;BME280;11187;49.412;20.956;2023-04-03T03:17:17;95021.59;;;0.48;100.00
22047;BME280;11187;49.412;20.956;2023-04-03T03:19:50;95022.38;;;0.44;100.00
22047;BME280;11187;49.412;20.956;2023-04-03T03:22:36;95032.28;;;0.36;100.00
22047;BME280;11187;49.412;20.956;2023-04-03T03:25:10;95018.06;;;0.38;100.00
22047;BME280;11187;49.412;20.956;2023-04-03T03:27:56;95020.66;;;0.41;100.00
22047;BME280;11187;49.412;20.956;2023-04-03T03:30:30;95017.25;;;0.39;100.00
22047;BME280;11187;49.412;20.956;2023-04-03T03:33:17;95020.56;;;0.38;100.00
22047;BME280;11187;49.412;20.956;2023-04-03T03:35:52;95012.22;;;0.39;100.00
22047;BME280;11187;49.412;20.956;2023-04-03T03:38:45;95023.94;;;0.37;100.00
22047;BME280;11187;49.412;20.956;2023-04-03T03:41:19;95021.44;;;0.40;100.00
22047;BME280;11187;49.412;20.956;2023-04-03T03:44:12;95019.78;;;0.39;100.00
22047;BME280;11187;49.412;20.956;2023-04-03T03:46:46;95023.22;;;0.44;100.00
22047;BME280;11187;49.412;20.956;2023-04-03T03:49:39;95019.78;;;0.40;100.00
22047;BME280;11187;49.412;20.956;2023-04-03T03:52:33;95026.50;;;0.40;100.00
22047;BME280;11187;49.412;20.956;2023-04-03T03:55:27;95032.28;;;0.36;100.00
22047;BME280;11187;49.412;20.956;2023-04-03T03:58:21;95034.81;;;0.36;100.00
22047;BME280;11187;49.412;20.956;2023-04-03T04:01:05;95037.31;;;0.36;100.00
22047;BME280;11187;49.412;20.956;2023-04-03T04:03:52;95039.00;;;0.35;100.00
22047;BME280;11187;49.412;20.956;2023-04-03T04:06:27;95046.59;;;0.37;100.00
22047;BME280;11187;49.412;20.956;2023-04-03T04:09:20;95039.00;;;0.35;100.00
22047;BME280;11187;49.412;20.956;2023-04-03T04:11:54;95041.50;;;0.35;100.00
22047;BME280;11187;49.412;20.956;2023-04-03T04:14:47;95034.63;;;0.25;100.00
22047;BME280;11187;49.412;20.956;2023-04-03T04:17:41;95032.06;;;0.24;100.00
22047;BME280;11187;49.412;20.956;2023-04-03T04:20:15;95031.13;;;0.18;100.00
22047;BME280;11187;49.412;20.956;2023-04-03T04:23:08;95043.72;;;0.18;100.00
22047;BME280;11187;49.412;20.956;2023-04-03T04:25:47;95032.75;;;0.16;100.00
22047;BME280;11187;49.412;20.956;2023-04-03T04:28:40;95038.63;;;0.17;100.00
22047;BME280;11187;49.412;20.956;2023-04-03T04:31:34;95036.22;;;0.22;100.00
22047;BME280;11187;49.412;20.956;2023-04-03T04:34:08;95038.72;;;0.22;100.00
22047;BME280;11187;49.412;20.956;2023-04-03T04:36:54;95040.41;;;0.21;100.00
22047;BME280;11187;49.412;20.956;2023-04-03T04:39:28;95037.06;;;0.22;100.00
22047;BME280;11187;49.412;20.956;2023-04-03T04:42:15;95036.25;;;0.23;100.00
22047;BME280;11187;49.412;20.956;2023-04-03T04:44:50;95041.28;;;0.23;100.00
22047;BME280;11187;49.412;20.956;2023-04-03T04:47:36;95045.44;;;0.21;100.00
22047;BME280;11187;49.412;20.956;2023-04-03T04:50:10;95036.13;;;0.17;100.00
22047;BME280;11187;49.412;20.956;2023-04-03T04:52:57;95044.59;;;0.22;100.00
22047;BME280;11187;49.412;20.956;2023-04-03T04:55:31;95049.63;;;0.22;100.00
22047;BME280;11187;49.412;20.956;2023-04-03T04:58:17;95052.16;;;0.20;100.00
22047;BME280;11187;49.412;20.956;2023-04-03T05:01:05;95049.59;;;0.19;100.00
22047;BME280;11187;49.412;20.956;2023-04-03T05:03:52;95053.88;;;0.25;100.00
22047;BME280;11187;49.412;20.956;2023-04-03T05:06:26;95054.84;;;0.30;100.00
22047;BME280;11187;49.412;20.956;2023-04-03T05:09:12;95061.59;;;0.32;100.00
22047;BME280;11187;49.412;20.956;2023-04-03T05:11:46;95061.53;;;0.28;100.00
22047;BME280;11187;49.412;20.956;2023-04-03T05:14:32;95066.56;;;0.28;100.00
22047;BME280;11187;49.412;20.956;2023-04-03T05:17:06;95063.16;;;0.27;100.00
22047;BME280;11187;49.412;20.956;2023-04-03T05:19:59;95062.38;;;0.28;100.00
22047;BME280;11187;49.412;20.956;2023-04-03T05:22:53;95075.84;;;0.32;100.00
22047;BME280;11187;49.412;20.956;2023-04-03T05:25:47;95070.75;;;0.29;100.00
22047;BME280;11187;49.412;20.956;2023-04-03T05:28:22;95073.28;;;0.29;100.00
22047;BME280;11187;49.412;20.956;2023-04-03T05:31:09;95080.13;;;0.34;100.00
22047;BME280;11187;49.412;20.956;2023-04-03T05:33:42;95080.13;;;0.36;100.00
22047;BME280;11187;49.412;20.956;2023-04-03T05:36:35;95071.69;;;0.34;100.00
22047;BME280;11187;49.412;20.956;2023-04-03T05:39:09;95080.16;;;0.37;100.00
22047;BME280;11187;49.412;20.956;2023-04-03T05:41:55;95081.66;;;0.29;100.00
22047;BME280;11187;49.412;20.956;2023-04-03T05:44:29;95085.88;;;0.29;100.00
22047;BME280;11187;49.412;20.956;2023-04-03T05:47:16;95081.75;;;0.32;100.00
22047;BME280;11187;49.412;20.956;2023-04-03T05:49:50;95079.19;;;0.31;100.00
22047;BME280;11187;49.412;20.956;2023-04-03T05:52:38;95079.16;;;0.28;100.00
22047;BME280;11187;49.412;20.956;2023-04-03T05:55:33;95079.22;;;0.32;100.00
22047;BME280;11187;49.412;20.956;2023-04-03T05:58:27;95082.56;;;0.31;100.00
22047;BME280;11187;49.412;20.956;2023-04-03T06:01:21;95094.97;;;0.22;100.00
22047;BME280;11187;49.412;20.956;2023-04-03T06:03:56;95082.28;;;0.17;100.00
22047;BME280;11187;49.412;20.956;2023-04-03T06:06:51;95088.97;;;0.17;100.00
22047;BME280;11187;49.412;20.956;2023-04-03T06:09:26;95089.09;;;0.22;100.00
22047;BME280;11187;49.412;20.956;2023-04-03T06:12:19;95094.13;;;0.22;100.00
22047;BME280;11187;49.412;20.956;2023-04-03T06:14:54;95092.16;;;0.08;100.00
22047;BME280;11187;49.412;20.956;2023-04-03T06:17:48;95095.66;;;0.15;100.00
22047;BME280;11187;49.412;20.956;2023-04-03T06:20:41;95090.66;;;0.16;100.00
22047;BME280;11187;49.412;20.956;2023-04-03T06:23:15;95095.50;;;0.09;100.00
22047;BME280;11187;49.412;20.956;2023-04-03T06:26:02;95096.44;;;0.12;100.00
22047;BME280;11187;49.412;20.956;2023-04-03T06:28:35;95105.78;;;0.18;100.00
22047;BME280;11187;49.412;20.956;2023-04-03T06:31:29;95107.50;;;0.19;100.00
22047;BME280;11187;49.412;20.956;2023-04-03T06:34:22;95114.91;;;0.13;100.00
22047;BME280;11187;49.412;20.956;2023-04-03T06:36:56;95114.94;;;0.14;100.00
22047;BME280;11187;49.412;20.956;2023-04-03T06:39:43;95124.94;;;0.11;100.00
22047;BME280;11187;49.412;20.956;2023-04-03T06:42:16;95125.75;;;0.10;100.00
22047;BME280;11187;49.412;20.956;2023-04-03T06:45:03;95134.84;;;0.04;100.00
22047;BME280;11187;49.412;20.956;2023-04-03T06:47:36;95126.41;;;0.00;100.00
22047;BME280;11187;49.412;20.956;2023-04-03T06:50:30;95133.94;;;0.00;100.00
22047;BME280;11187;49.412;20.956;2023-04-03T06:53:03;95123.03;;;0.01;100.00
22047;BME280;11187;49.412;20.956;2023-04-03T06:55:49;95134.84;;;0.04;100.00
22047;BME280;11187;49.412;20.956;2023-04-03T06:58:23;95131.59;;;0.08;100.00
22047;BME280;11187;49.412;20.956;2023-04-03T07:01:12;95127.44;;;0.11;100.00
22047;BME280;11187;49.412;20.956;2023-04-03T07:03:46;95138.44;;;0.15;100.00
22047;BME280;11187;49.412;20.956;2023-04-03T07:06:33;95145.22;;;0.17;100.00
22047;BME280;11187;49.412;20.956;2023-04-03T07:09:07;95140.19;;;0.17;100.00
22047;BME280;11187;49.412;20.956;2023-04-03T07:12:00;95135.69;;;0.03;100.00
22047;BME280;11187;49.412;20.956;2023-04-03T07:14:54;95140.03;;;0.10;100.00
22047;BME280;11187;49.412;20.956;2023-04-03T07:17:28;95156.03;;;0.13;100.00
22047;BME280;11187;49.412;20.956;2023-04-03T07:20:15;95153.56;;;0.15;100.00
22047;BME280;11187;49.412;20.956;2023-04-03T07:22:49;95143.63;;;0.21;100.00
22047;BME280;11187;49.412;20.956;2023-04-03T07:25:36;95151.47;;;0.35;100.00
22047;BME280;11187;49.412;20.956;2023-04-03T07:28:09;95159.13;;;0.39;100.00
22047;BME280;11187;49.412;20.956;2023-04-03T07:31:10;95154.09;;;0.39;100.00
22047;BME280;11187;49.412;20.956;2023-04-03T07:33:45;95159.19;;;0.43;100.00
22047;BME280;11187;49.412;20.956;2023-04-03T07:36:39;95162.53;;;0.41;100.00
22047;BME280;11187;49.412;20.956;2023-04-03T07:39:33;95163.53;;;0.50;100.00
22047;BME280;11187;49.412;20.956;2023-04-03T07:42:06;95159.53;;;0.59;100.00
22047;BME280;11187;49.412;20.956;2023-04-03T07:44:53;95165.56;;;0.66;100.00
22047;BME280;11187;49.412;20.956;2023-04-03T07:47:27;95167.09;;;0.59;100.00
22047;BME280;11187;49.412;20.956;2023-04-03T07:50:14;95176.47;;;0.67;100.00
22047;BME280;11187;49.412;20.956;2023-04-03T07:52:47;95187.44;;;0.70;100.00
22047;BME280;11187;49.412;20.956;2023-04-03T07:55:36;95186.53;;;0.65;100.00
22047;BME280;11187;49.412;20.956;2023-04-03T07:58:17;95192.25;;;0.58;100.00
22047;BME280;11187;49.412;20.956;2023-04-03T08:01:05;95185.72;;;0.66;100.00
22047;BME280;11187;49.412;20.956;2023-04-03T08:03:39;95190.88;;;0.72;100.00
22047;BME280;11187;49.412;20.956;2023-04-03T08:06:26;95179.25;;;0.79;100.00
22047;BME280;11187;49.412;20.956;2023-04-03T08:09:14;95185.91;;;0.77;100.00
22047;BME280;11187;49.412;20.956;2023-04-03T08:12:07;95191.03;;;0.81;100.00
22047;BME280;11187;49.412;20.956;2023-04-03T08:15:03;95191.13;;;0.86;100.00
22047;BME280;11187;49.412;20.956;2023-04-03T08:17:36;95182.06;;;0.94;100.00
22047;BME280;11187;49.412;20.956;2023-04-03T08:20:29;95193.25;;;1.09;100.00
22047;BME280;11187;49.412;20.956;2023-04-03T08:23:03;95192.75;;;1.27;100.00
22047;BME280;11187;49.412;20.956;2023-04-03T08:25:49;95193.72;;;1.33;100.00
22047;BME280;11187;49.412;20.956;2023-04-03T08:28:24;95201.13;;;1.24;100.00
22047;BME280;11187;49.412;20.956;2023-04-03T08:31:14;95210.41;;;1.25;100.00
22047;BME280;11187;49.412;20.956;2023-04-03T08:33:47;95211.38;;;1.33;100.00
22047;BME280;11187;49.412;20.956;2023-04-03T08:36:33;95197.88;;;1.31;100.00
22047;BME280;11187;49.412;20.956;2023-04-03T08:39:07;95212.22;;;1.32;100.00
22047;BME280;11187;49.412;20.956;2023-04-03T08:41:57;95217.19;;;1.29;100.00
22047;BME280;11187;49.412;20.956;2023-04-03T08:47:40;95217.72;;;1.13;99.80
22047;BME280;11187;49.412;20.956;2023-04-03T08:50:19;95221.50;;;0.92;100.00
22047;BME280;11187;49.412;20.956;2023-04-03T08:53:16;95222.25;;;0.88;98.90
22047;BME280;11187;49.412;20.956;2023-04-03T08:55:53;95230.66;;;0.87;100.00
22047;BME280;11187;49.412;20.956;2023-04-03T08:59:00;95224.78;;;0.88;100.00
22047;BME280;11187;49.412;20.956;2023-04-03T09:01:41;95229.03;;;0.91;100.00
22047;BME280;11187;49.412;20.956;2023-04-03T09:04:30;95227.25;;;0.85;98.99
22047;BME280;11187;49.412;20.956;2023-04-03T09:07:13;95224.78;;;0.87;99.51
22047;BME280;11187;49.412;20.956;2023-04-03T09:10:12;95223.00;;;0.84;100.00
22047;BME280;11187;49.412;20.956;2023-04-03T09:13:21;95229.59;;;0.76;100.00
22047;BME280;11187;49.412;20.956;2023-04-03T09:15:57;95222.72;;;0.70;99.60
22047;BME280;11187;49.412;20.956;2023-04-03T09:18:48;95219.31;;;0.67;100.00
22047;BME280;11187;49.412;20.956;2023-04-03T09:21:32;95231.13;;;0.69;100.00
22047;BME280;11187;49.412;20.956;2023-04-03T09:24:23;95232.16;;;0.77;100.00
22047;BME280;11187;49.412;20.956;2023-04-03T09:26:58;95235.84;;;0.95;100.00
22047;BME280;11187;49.412;20.956;2023-04-03T09:29:46;95239.50;;;1.09;100.00
22047;BME280;11187;49.412;20.956;2023-04-03T09:35:28;95256.28;;;1.09;97.79
22047;BME280;11187;49.412;20.956;2023-04-03T09:41:16;95244.34;;;0.98;100.00
22047;BME280;11187;49.412;20.956;2023-04-03T09:43:54;95260.97;;;0.90;99.03
22047;BME280;11187;49.412;20.956;2023-04-03T09:46:40;95261.81;;;0.91;100.00
22047;BME280;11187;49.412;20.956;2023-04-03T09:49:14;95263.53;;;0.92;99.20
22047;BME280;11187;49.412;20.956;2023-04-03T09:52:26;95266.41;;;0.69;97.86
22047;BME280;11187;49.412;20.956;2023-04-03T09:55:26;95278.09;;;0.67;98.29
22047;BME280;11187;49.412;20.956;2023-04-03T09:58:04;95272.31;;;0.71;98.62
22047;BME280;11187;49.412;20.956;2023-04-03T10:01:32;95286.28;;;0.57;97.93
22047;BME280;11187;49.412;20.956;2023-04-03T10:04:13;95281.72;;;0.78;99.14
22047;BME280;11187;49.412;20.956;2023-04-03T10:07:02;95284.44;;;0.88;98.06
22047;BME280;11187;49.412;20.956;2023-04-03T10:09:35;95280.38;;;0.94;98.85
22047;BME280;11187;49.412;20.956;2023-04-03T10:12:23;95295.69;;;1.03;98.88
22047;BME280;11187;49.412;20.956;2023-04-03T10:14:58;95299.28;;;1.15;99.33
22047;BME280;11187;49.412;20.956;2023-04-03T10:17:57;95300.22;;;1.18;98.75
22047;BME280;11187;49.412;20.956;2023-04-03T10:21:14;95310.97;;;1.10;99.49
22047;BME280;11187;49.412;20.956;2023-04-03T10:24:31;95307.41;;;1.01;98.27
22047;BME280;11187;49.412;20.956;2023-04-03T10:30:46;95317.16;;;0.86;99.16
22047;BME280;11187;49.412;20.956;2023-04-03T10:33:46;95336.94;;;0.69;98.47
22047;BME280;11187;49.412;20.956;2023-04-03T10:36:44;95325.94;;;0.66;99.48
22047;BME280;11187;49.412;20.956;2023-04-03T10:51:27;95330.38;;;0.39;97.35
22047;BME280;11187;49.412;20.956;2023-04-03T10:54:33;95333.97;;;0.14;96.03
22047;BME280;11187;49.412;20.956;2023-04-03T10:57:30;95325.34;;;0.06;96.09
22047;BME280;11187;49.412;20.956;2023-04-03T11:00:33;95333.25;;;0.18;97.25
22047;BME280;11187;49.412;20.956;2023-04-03T11:03:29;95332.34;;;0.18;97.53
22047;BME280;11187;49.412;20.956;2023-04-03T11:06:26;95341.00;;;0.28;98.38
22047;BME280;11187;49.412;20.956;2023-04-03T11:09:34;95344.38;;;0.28;97.76
22047;BME280;11187;49.412;20.956;2023-04-03T11:15:24;95333.06;;;0.46;98.54
22047;BME280;11187;49.412;20.956;2023-04-03T11:18:02;95340.56;;;0.44;98.15
22047;BME280;11187;49.412;20.956;2023-04-03T11:21:12;95343.88;;;0.43;98.54
22047;BME280;11187;49.412;20.956;2023-04-03T11:23:51;95345.66;;;0.46;100.00
22047;BME280;11187;49.412;20.956;2023-04-03T11:26:41;95342.94;;;0.38;99.45
22047;BME280;11187;49.412;20.956;2023-04-03T11:29:19;95344.78;;;0.45;100.00
22047;BME280;11187;49.412;20.956;2023-04-03T11:35:08;95353.06;;;0.39;100.00
22047;BME280;11187;49.412;20.956;2023-04-03T11:37:57;95346.16;;;0.32;99.29
22047;BME280;11187;49.412;20.956;2023-04-03T11:40:35;95356.59;;;0.48;97.68
22047;BME280;11187;49.412;20.956;2023-04-03T11:43:28;95360.03;;;0.51;97.08
22047;BME280;11187;49.412;20.956;2023-04-03T11:46:04;95347.13;;;0.74;97.65
22047;BME280;11187;49.412;20.956;2023-04-03T11:48:51;95345.31;;;1.06;96.47
22047;BME280;11187;49.412;20.956;2023-04-03T11:54:42;95359.13;;;0.84;96.33
22047;BME280;11187;49.412;20.956;2023-04-03T11:57:43;95374.50;;;0.95;94.76
22047;BME280;11187;49.412;20.956;2023-04-03T12:09:27;95367.06;;;1.01;94.70
22047;BME280;11187;49.412;20.956;2023-04-03T12:12:32;95366.50;;;0.76;94.48
22047;BME280;11187;49.412;20.956;2023-04-03T12:27:40;95362.16;;;0.34;92.90
22047;BME280;11187;49.412;20.956;2023-04-03T12:30:36;95363.34;;;0.15;94.77
22047;BME280;11187;49.412;20.956;2023-04-03T12:36:28;95364.19;;;0.14;96.11
22047;BME280;11187;49.412;20.956;2023-04-03T12:39:33;95367.34;;;0.07;96.59
22047;BME280;11187;49.412;20.956;2023-04-03T12:49:02;95374.56;;;-0.37;97.33
22047;BME280;11187;49.412;20.956;2023-04-03T12:55:20;95372.63;;;-0.15;98.40
22047;BME280;11187;49.412;20.956;2023-04-03T13:03:57;95371.13;;;0.25;96.07
22047;BME280;11187;49.412;20.956;2023-04-03T13:06:42;95369.41;;;0.22;96.13
22047;BME280;11187;49.412;20.956;2023-04-03T13:09:37;95366.97;;;0.25;97.24
22047;BME280;11187;49.412;20.956;2023-04-03T13:12:31;95370.94;;;0.17;96.18
22047;BME280;11187;49.412;20.956;2023-04-03T13:15:28;95375.63;;;0.03;95.60
22047;BME280;11187;49.412;20.956;2023-04-03T13:18:02;95369.47;;;-0.08;95.90
22047;BME280;11187;49.412;20.956;2023-04-03T13:21:18;95362.59;;;-0.14;97.34
22047;BME280;11187;49.412;20.956;2023-04-03T13:24:13;95365.34;;;-0.05;98.58
22047;BME280;11187;49.412;20.956;2023-04-03T13:26:46;95367.75;;;-0.09;97.33
22047;BME280;11187;49.412;20.956;2023-04-03T13:29:35;95367.63;;;-0.14;98.39
22047;BME280;11187;49.412;20.956;2023-04-03T13:32:20;95369.22;;;-0.17;98.23
22047;BME280;11187;49.412;20.956;2023-04-03T13:35:47;95368.19;;;-0.24;97.64
22047;BME280;11187;49.412;20.956;2023-04-03T13:38:29;95376.66;;;-0.22;98.49
22047;BME280;11187;49.412;20.956;2023-04-03T13:41:35;95364.72;;;-0.29;98.15
22047;BME280;11187;49.412;20.956;2023-04-03T13:44:40;95368.81;;;-0.33;99.08
22047;BME280;11187;49.412;20.956;2023-04-03T13:47:22;95367.72;;;-0.41;98.46
22047;BME280;11187;49.412;20.956;2023-04-03T13:50:20;95358.69;;;-0.34;98.88
22047;BME280;11187;49.412;20.956;2023-04-03T13:53:15;95365.75;;;-0.21;99.87
22047;BME280;11187;49.412;20.956;2023-04-03T14:01:54;95362.47;;;-0.18;99.63
22047;BME280;11187;49.412;20.956;2023-04-03T14:04:54;95361.50;;;-0.24;99.50
22047;BME280;11187;49.412;20.956;2023-04-03T14:07:48;95353.84;;;-0.28;98.87
22047;BME280;11187;49.412;20.956;2023-04-03T14:10:42;95358.78;;;-0.31;98.68
22047;BME280;11187;49.412;20.956;2023-04-03T14:13:36;95362.28;;;-0.26;99.24
22047;BME280;11187;49.412;20.956;2023-04-03T14:16:32;95359.81;;;-0.25;97.51
22047;BME280;11187;49.412;20.956;2023-04-03T14:19:28;95360.00;;;-0.17;98.03
22047;BME280;11187;49.412;20.956;2023-04-03T14:22:23;95354.25;;;-0.13;98.01
22047;BME280;11187;49.412;20.956;2023-04-03T14:25:18;95353.41;;;-0.12;98.45
22047;BME280;11187;49.412;20.956;2023-04-03T14:28:18;95352.38;;;-0.20;97.75
22047;BME280;11187;49.412;20.956;2023-04-03T14:30:53;95353.94;;;-0.24;97.24
22047;BME280;11187;49.412;20.956;2023-04-03T14:33:40;95348.88;;;-0.25;97.88
22047;BME280;11187;49.412;20.956;2023-04-03T14:36:14;95348.03;;;-0.26;98.67
22047;BME280;11187;49.412;20.956;2023-04-03T14:39:02;95353.75;;;-0.31;97.60
22047;BME280;11187;49.412;20.956;2023-04-03T14:41:36;95358.19;;;-0.23;97.76
22047;BME280;11187;49.412;20.956;2023-04-03T14:44:24;95354.00;;;-0.22;96.25
22047;BME280;11187;49.412;20.956;2023-04-03T14:46:57;95374.69;;;-0.32;95.40
22047;BME280;11187;49.412;20.956;2023-04-03T14:49:45;95369.53;;;-0.37;95.67
22047;BME280;11187;49.412;20.956;2023-04-03T14:52:22;95382.69;;;-0.46;95.01
22047;BME280;11187;49.412;20.956;2023-04-03T14:55:17;95378.00;;;-0.33;98.09
22047;BME280;11187;49.412;20.956;2023-04-03T14:58:14;95365.31;;;-0.38;95.72
22047;BME280;11187;49.412;20.956;2023-04-03T15:01:10;95369.19;;;-0.49;95.71
22047;BME280;11187;49.412;20.956;2023-04-03T15:03:43;95369.13;;;-0.51;96.45
22047;BME280;11187;49.412;20.956;2023-04-03T15:06:30;95376.63;;;-0.52;96.80
22047;BME280;11187;49.412;20.956;2023-04-03T15:09:03;95376.47;;;-0.58;95.95
22047;BME280;11187;49.412;20.956;2023-04-03T15:11:52;95379.78;;;-0.59;96.91
22047;BME280;11187;49.412;20.956;2023-04-03T15:14:26;95372.94;;;-0.65;95.56
22047;BME280;11187;49.412;20.956;2023-04-03T15:17:36;95378.59;;;-0.72;96.79
22047;BME280;11187;49.412;20.956;2023-04-03T15:20:15;95381.06;;;-0.74;97.12
22047;BME280;11187;49.412;20.956;2023-04-03T15:23:02;95366.88;;;-0.72;97.59
22047;BME280;11187;49.412;20.956;2023-04-03T15:25:35;95370.16;;;-0.74;96.91
22047;BME280;11187;49.412;20.956;2023-04-03T15:28:34;95358.31;;;-0.78;97.55
22047;BME280;11187;49.412;20.956;2023-04-03T15:31:09;95365.72;;;-0.83;97.64
22047;BME280;11187;49.412;20.956;2023-04-03T15:34:03;95365.66;;;-0.85;98.07
22047;BME280;11187;49.412;20.956;2023-04-03T15:36:36;95367.47;;;-0.80;99.17
22047;BME280;11187;49.412;20.956;2023-04-03T15:39:30;95377.47;;;-0.82;97.97
22047;BME280;11187;49.412;20.956;2023-04-03T15:42:03;95378.41;;;-0.78;97.81
22047;BME280;11187;49.412;20.956;2023-04-03T15:44:52;95372.44;;;-0.82;98.63
22047;BME280;11187;49.412;20.956;2023-04-03T15:47:26;95368.31;;;-0.80;98.19
22047;BME280;11187;49.412;20.956;2023-04-03T15:50:20;95363.19;;;-0.83;98.06
22047;BME280;11187;49.412;20.956;2023-04-03T15:53:14;95371.59;;;-0.82;97.60
22047;BME280;11187;49.412;20.956;2023-04-03T15:56:08;95373.25;;;-0.83;97.20
22047;BME280;11187;49.412;20.956;2023-04-03T15:59:04;95368.03;;;-0.89;96.56
22047;BME280;11187;49.412;20.956;2023-04-03T16:01:38;95381.44;;;-0.90;96.64